Time;durP1;ratioP1;P1;durP2;ratioP2;P2;SDS_P1;SDS_P2;PMS_P1;PMS_P2;Temp;Humidity;BMP_temperature;BMP_pressure;BME280_temperature;BME280_humidity;BME280_pressure;Samples;Min_cycle;Max_cycle;Signal;HPM_P1;HPM_P2
2022/06/23 00:01:24;;;;;;;12.90;8.33;;;;;;;;;;4975313;29;20473;-84
2022/06/23 00:03:54;;;;;;;12.30;8.50;;;;;;;;;;4975444;28;20508;-84
2022/06/23 00:06:37;;;;;;;17.20;9.10;;;;;;;;;;4976203;29;20406;-85
2022/06/23 00:09:22;;;;;;;17.63;10.03;;;;;;;;;;4975728;29;20409;-86
2022/06/23 00:11:49;;;;;;;17.20;8.70;;;;;;;;;;4975632;29;20406;-85
2022/06/23 00:14:15;;;;;;;12.10;9.17;;;;;;;;;;4975789;28;20418;-84
2022/06/23 00:16:43;;;;;;;12.80;9.27;;;;;;;;;;4974418;29;20477;-84
2022/06/23 00:19:18;;;;;;;15.40;10.50;;;;;;;;;;4976164;29;20470;-86
2022/06/23 00:21:47;;;;;;;14.37;9.13;;;;;;;;;;4974287;29;20477;-85
2022/06/23 00:24:22;;;;;;;12.63;8.90;;;;;;;;;;4975336;28;20764;-86
2022/06/23 00:26:49;;;;;;;13.00;10.17;;;;;;;;;;4976246;28;20516;-85
2022/06/23 00:29:16;;;;;;;11.90;8.93;;;;;;;;;;4975472;29;20437;-86
2022/06/23 00:31:47;;;;;;;14.27;10.40;;;;;;;;;;4976071;29;20451;-85
2022/06/23 00:34:23;;;;;;;17.30;11.10;;;;;;;;;;4976877;28;20437;-85
2022/06/23 00:36:52;;;;;;;12.47;9.57;;;;;;;;;;4976023;29;20414;-85
2022/06/23 00:39:29;;;;;;;16.40;9.27;;;;;;;;;;4975519;29;20826;-85
2022/06/23 00:41:55;;;;;;;11.27;9.43;;;;;;;;;;4976491;29;20397;-85
2022/06/23 00:44:29;;;;;;;23.77;10.07;;;;;;;;;;4975085;28;20441;-86
2022/06/23 00:46:56;;;;;;;16.03;9.90;;;;;;;;;;4975675;29;20399;-85
2022/06/23 00:49:48;;;;;;;13.03;8.90;;;;;;;;;;4975203;29;20412;-85
2022/06/23 00:52:21;;;;;;;15.97;7.80;;;;;;;;;;4957045;29;20453;-84
2022/06/23 00:54:49;;;;;;;13.80;7.57;;;;;;;;;;4975297;28;20450;-85
2022/06/23 00:57:28;;;;;;;12.63;7.50;;;;;;;;;;4975252;29;20465;-84
2022/06/23 01:00:00;;;;;;;13.50;7.57;;;;;;;;;;4974822;29;20414;-85
2022/06/23 01:02:28;;;;;;;18.23;8.43;;;;;;;;;;4973202;29;20398;-85
2022/06/23 01:05:00;;;;;;;16.20;8.13;;;;;;;;;;4973731;29;20978;-85
2022/06/23 01:07:32;;;;;;;10.97;7.40;;;;;;;;;;4976418;29;20399;-84
2022/06/23 01:10:02;;;;;;;13.70;8.17;;;;;;;;;;4976626;29;20418;-85
2022/06/23 01:12:38;;;;;;;15.97;7.90;;;;;;;;;;4976775;29;20438;-84
2022/06/23 01:15:27;;;;;;;16.30;6.80;;;;;;;;;;4977187;29;20418;-84
2022/06/23 01:17:53;;;;;;;18.67;8.50;;;;;;;;;;4973168;29;20553;-84
2022/06/23 01:20:35;;;;;;;11.70;7.37;;;;;;;;;;4978857;29;20406;-84
2022/06/23 01:23:17;;;;;;;9.17;6.73;;;;;;;;;;4978531;28;20461;-84
2022/06/23 01:25:49;;;;;;;10.97;6.83;;;;;;;;;;4978174;28;20458;-84
2022/06/23 01:28:28;;;;;;;12.07;7.77;;;;;;;;;;4979244;28;20518;-83
2022/06/23 01:30:54;;;;;;;14.00;7.60;;;;;;;;;;4977211;29;20402;-85
2022/06/23 01:33:41;;;;;;;13.40;7.17;;;;;;;;;;4975336;28;20460;-86
2022/06/23 01:36:07;;;;;;;19.13;8.40;;;;;;;;;;4959232;29;20410;-85
2022/06/23 01:38:53;;;;;;;14.90;6.80;;;;;;;;;;4980890;28;20454;-85
2022/06/23 01:41:37;;;;;;;17.70;7.70;;;;;;;;;;4993467;28;20417;-84
2022/06/23 01:44:09;;;;;;;11.50;8.10;;;;;;;;;;4993671;28;20433;-85
2022/06/23 01:46:36;;;;;;;15.80;7.93;;;;;;;;;;4977373;28;20421;-85
2022/06/23 01:49:02;;;;;;;15.13;8.10;;;;;;;;;;4977662;28;20405;-84
2022/06/23 01:51:40;;;;;;;10.73;8.00;;;;;;;;;;4993494;28;20409;-84
2022/06/23 01:54:09;;;;;;;14.00;7.60;;;;;;;;;;4993941;28;20425;-84
2022/06/23 01:56:38;;;;;;;10.80;7.57;;;;;;;;;;4993837;28;20405;-85
2022/06/23 01:59:13;;;;;;;13.17;7.00;;;;;;;;;;4993142;28;20452;-86
2022/06/23 02:01:42;;;;;;;12.40;6.40;;;;;;;;;;4992809;28;20404;-86
2022/06/23 02:04:17;;;;;;;15.93;7.57;;;;;;;;;;4975525;28;20429;-86
2022/06/23 02:06:54;;;;;;;16.83;9.43;;;;;;;;;;4993921;28;20389;-86
2022/06/23 02:12:24;;;;;;;19.13;7.80;;;;;;;;;;4992612;28;20472;-86
2022/06/23 02:14:50;;;;;;;12.77;7.20;;;;;;;;;;4993161;28;20428;-86
2022/06/23 02:17:19;;;;;;;13.40;6.13;;;;;;;;;;4976003;28;20416;-85
2022/06/23 02:19:50;;;;;;;13.07;6.23;;;;;;;;;;4993166;28;20405;-85
2022/06/23 02:22:16;;;;;;;16.77;7.20;;;;;;;;;;4998780;28;20416;-85
2022/06/23 02:24:45;;;;;;;11.97;6.70;;;;;;;;;;4998442;28;20448;-87
2022/06/23 02:27:14;;;;;;;11.70;6.00;;;;;;;;;;4977468;28;20409;-86
2022/06/23 02:30:00;;;;;;;12.80;6.27;;;;;;;;;;4977520;28;20428;-86
2022/06/23 02:32:44;;;;;;;9.20;6.30;;;;;;;;;;4993382;28;20432;-86
2022/06/23 02:35:17;;;;;;;17.87;6.47;;;;;;;;;;4993583;28;20476;-85
2022/06/23 02:37:52;;;;;;;18.60;6.10;;;;;;;;;;4978290;28;20460;-86
2022/06/23 02:40:33;;;;;;;15.70;6.77;;;;;;;;;;4997877;28;20436;-86
2022/06/23 02:43:02;;;;;;;12.77;6.20;;;;;;;;;;4980186;28;20436;-85
2022/06/23 02:45:47;;;;;;;9.60;5.47;;;;;;;;;;4997526;28;20380;-85
2022/06/23 02:48:23;;;;;;;10.40;6.07;;;;;;;;;;4982449;28;20404;-85
2022/06/23 02:51:04;;;;;;;15.37;6.90;;;;;;;;;;4999274;28;20523;-86
2022/06/23 02:53:49;;;;;;;14.23;4.93;;;;;;;;;;4980832;28;20495;-86
2022/06/23 02:56:41;;;;;;;10.13;5.73;;;;;;;;;;4980905;28;20544;-87
2022/06/23 02:59:08;;;;;;;17.60;7.00;;;;;;;;;;4994923;28;20559;-85
2022/06/23 03:01:46;;;;;;;11.50;6.00;;;;;;;;;;4996644;28;20416;-85
2022/06/23 03:04:23;;;;;;;14.53;5.60;;;;;;;;;;5039085;23;20498;-84
2022/06/23 03:06:58;;;;;;;15.87;6.40;;;;;;;;;;5015523;28;20425;-84
2022/06/23 03:09:37;;;;;;;15.47;6.27;;;;;;;;;;5002644;28;20445;-85
2022/06/23 03:15:39;;;;;;;13.60;6.67;;;;;;;;;;5233830;22;20497;-82
2022/06/23 03:20:47;;;;;;;17.43;6.50;;;;;;;;;;5685753;22;20449;-85
2022/06/23 03:25:53;;;;;;;15.70;6.27;;;;;;;;;;5018608;22;20532;-84
2022/06/23 03:28:19;;;;;;;13.87;6.00;;;;;;;;;;5026152;28;20810;-83
2022/06/23 03:31:05;;;;;;;15.00;7.10;;;;;;;;;;5024457;28;20447;-86
2022/06/23 03:33:31;;;;;;;18.37;6.40;;;;;;;;;;5004346;28;20431;-86
2022/06/23 03:36:04;;;;;;;16.43;6.13;;;;;;;;;;5021503;28;20458;-86
2022/06/23 03:41:36;;;;;;;11.90;7.53;;;;;;;;;;5021358;28;20907;-86
2022/06/23 03:44:22;;;;;;;16.57;7.10;;;;;;;;;;5021803;28;20761;-85
2022/06/23 03:46:54;;;;;;;11.70;6.50;;;;;;;;;;5021172;28;20415;-85
2022/06/23 03:49:26;;;;;;;13.30;7.00;;;;;;;;;;5020686;28;20749;-85
2022/06/23 03:51:57;;;;;;;13.97;5.90;;;;;;;;;;5021075;28;20439;-87
2022/06/23 03:54:34;;;;;;;19.93;7.37;;;;;;;;;;5019971;28;20422;-87
2022/06/23 03:57:04;;;;;;;20.93;6.77;;;;;;;;;;5002178;28;20411;-86
2022/06/23 03:59:36;;;;;;;13.00;6.57;;;;;;;;;;5020129;28;20400;-86
2022/06/23 04:02:12;;;;;;;14.23;6.07;;;;;;;;;;5019743;28;20398;-84
2022/06/23 04:04:44;;;;;;;15.53;6.07;;;;;;;;;;5017856;28;20454;-85
2022/06/23 04:07:28;;;;;;;12.77;7.47;;;;;;;;;;5018397;28;20896;-85
2022/06/23 04:10:08;;;;;;;12.93;7.13;;;;;;;;;;5018538;28;20423;-86
2022/06/23 04:12:35;;;;;;;14.67;7.00;;;;;;;;;;5015358;28;20479;-84
2022/06/23 04:15:05;;;;;;;12.23;6.63;;;;;;;;;;5023771;28;20415;-86
2022/06/23 04:17:39;;;;;;;13.93;6.57;;;;;;;;;;5019667;28;20447;-86
2022/06/23 04:20:23;;;;;;;19.43;9.13;;;;;;;;;;5019817;28;20398;-86
2022/06/23 04:23:12;;;;;;;13.00;6.47;;;;;;;;;;5019710;28;20410;-86
2022/06/23 04:25:41;;;;;;;18.73;6.90;;;;;;;;;;5008881;28;20423;-86
2022/06/23 04:28:16;;;;;;;15.13;6.80;;;;;;;;;;5002903;28;20404;-85
2022/06/23 04:30:42;;;;;;;12.90;6.53;;;;;;;;;;5018972;28;20454;-86
2022/06/23 04:33:15;;;;;;;13.33;6.40;;;;;;;;;;5019932;28;20404;-86
2022/06/23 04:35:41;;;;;;;18.70;6.70;;;;;;;;;;5020011;28;20387;-86
2022/06/23 04:38:16;;;;;;;12.47;6.00;;;;;;;;;;5019527;28;20451;-86
2022/06/23 04:40:42;;;;;;;11.83;6.27;;;;;;;;;;5019760;28;20921;-84
2022/06/23 04:43:27;;;;;;;21.40;6.60;;;;;;;;;;5020172;28;20399;-86
2022/06/23 04:45:55;;;;;;;11.93;6.83;;;;;;;;;;5019336;28;20449;-86
2022/06/23 04:48:43;;;;;;;13.93;6.17;;;;;;;;;;5002286;28;20491;-86
2022/06/23 04:51:27;;;;;;;10.03;6.73;;;;;;;;;;5019820;28;20741;-86
2022/06/23 04:54:16;;;;;;;12.10;6.17;;;;;;;;;;5019373;28;20473;-86
2022/06/23 04:56:49;;;;;;;11.13;6.23;;;;;;;;;;5014180;28;20419;-83
2022/06/23 04:59:24;;;;;;;16.20;9.33;;;;;;;;;;5027251;28;20443;-86
2022/06/23 05:01:52;;;;;;;14.50;7.40;;;;;;;;;;5020370;28;20476;-86
2022/06/23 05:04:21;;;;;;;11.50;6.20;;;;;;;;;;5019640;28;20423;-85
2022/06/23 05:06:50;;;;;;;12.93;6.27;;;;;;;;;;5003154;28;20474;-85
2022/06/23 05:09:23;;;;;;;12.60;6.20;;;;;;;;;;5023534;28;20403;-86
2022/06/23 05:11:52;;;;;;;16.80;9.50;;;;;;;;;;5003944;28;20451;-86
2022/06/23 05:14:30;;;;;;;11.83;6.03;;;;;;;;;;5019813;28;20431;-86
2022/06/23 05:17:02;;;;;;;14.47;6.53;;;;;;;;;;5018936;28;20391;-86
2022/06/23 05:19:33;;;;;;;8.83;5.30;;;;;;;;;;5020802;28;20447;-87
2022/06/23 05:22:01;;;;;;;11.83;5.27;;;;;;;;;;5020596;28;20549;-85
2022/06/23 05:24:34;;;;;;;13.77;5.43;;;;;;;;;;5020582;28;20923;-85
2022/06/23 05:27:02;;;;;;;10.13;4.40;;;;;;;;;;5018211;28;20426;-87
2022/06/23 05:29:36;;;;;;;15.03;6.93;;;;;;;;;;5020345;28;20514;-86
2022/06/23 05:32:12;;;;;;;10.47;5.60;;;;;;;;;;5002195;28;20411;-86
2022/06/23 05:34:43;;;;;;;10.00;4.63;;;;;;;;;;5019993;28;20466;-86
2022/06/23 05:37:16;;;;;;;11.37;5.87;;;;;;;;;;5019627;28;20820;-85
2022/06/23 05:39:50;;;;;;;9.80;5.10;;;;;;;;;;5016375;28;20422;-83
2022/06/23 05:42:19;;;;;;;12.17;5.40;;;;;;;;;;5006463;28;20422;-83
2022/06/23 05:45:09;;;;;;;12.20;5.07;;;;;;;;;;5016344;28;20500;-84
2022/06/23 05:47:37;;;;;;;13.30;5.80;;;;;;;;;;5018750;28;20476;-84
2022/06/23 05:50:09;;;;;;;13.93;5.10;;;;;;;;;;5004713;28;20419;-84
2022/06/23 05:52:46;;;;;;;13.07;5.50;;;;;;;;;;5019250;28;20415;-85
2022/06/23 05:55:20;;;;;;;12.43;4.40;;;;;;;;;;5018831;28;20431;-85
2022/06/23 05:57:52;;;;;;;9.43;4.60;;;;;;;;;;5000984;28;20443;-86
2022/06/23 06:00:22;;;;;;;14.63;6.30;;;;;;;;;;5018960;28;20390;-84
2022/06/23 06:03:00;;;;;;;10.57;4.50;;;;;;;;;;5018742;28;20486;-85
2022/06/23 06:05:26;;;;;;;10.13;4.90;;;;;;;;;;5019076;28;20765;-86
2022/06/23 06:07:52;;;;;;;8.43;4.63;;;;;;;;;;5019620;28;20480;-84
2022/06/23 06:10:24;;;;;;;14.83;4.40;;;;;;;;;;5019701;28;20411;-84
2022/06/23 06:12:51;;;;;;;7.73;4.50;;;;;;;;;;5020135;28;20805;-83
2022/06/23 06:15:19;;;;;;;9.83;4.47;;;;;;;;;;5018147;28;20461;-84
2022/06/23 06:17:46;;;;;;;12.37;5.03;;;;;;;;;;5020394;28;20538;-84
2022/06/23 06:20:13;;;;;;;11.13;5.07;;;;;;;;;;5018940;28;20470;-85
2022/06/23 06:22:55;;;;;;;8.77;3.87;;;;;;;;;;5020144;28;20431;-84
2022/06/23 06:25:25;;;;;;;6.77;4.13;;;;;;;;;;5000908;28;20437;-83
2022/06/23 06:27:51;;;;;;;10.40;4.30;;;;;;;;;;5020032;28;20458;-85
2022/06/23 06:30:19;;;;;;;12.73;4.33;;;;;;;;;;5019309;28;20414;-85
2022/06/23 06:32:46;;;;;;;10.53;4.40;;;;;;;;;;5021556;28;20408;-86
2022/06/23 06:35:36;;;;;;;10.37;4.67;;;;;;;;;;5021641;28;20434;-86
2022/06/23 06:38:07;;;;;;;11.77;3.90;;;;;;;;;;5018838;28;20440;-86
2022/06/23 06:40:35;;;;;;;9.47;3.50;;;;;;;;;;5001333;28;20414;-86
2022/06/23 06:43:05;;;;;;;9.33;3.87;;;;;;;;;;5019036;28;20423;-86
2022/06/23 06:45:33;;;;;;;7.83;3.40;;;;;;;;;;5021076;28;20410;-86
2022/06/23 06:47:59;;;;;;;9.73;4.10;;;;;;;;;;5018738;28;20408;-86
2022/06/23 06:50:37;;;;;;;7.67;4.00;;;;;;;;;;5018981;28;20494;-86
2022/06/23 06:53:08;;;;;;;7.63;3.43;;;;;;;;;;5022231;28;20402;-84
2022/06/23 06:55:46;;;;;;;10.90;3.80;;;;;;;;;;5021440;28;20388;-84
2022/06/23 06:58:24;;;;;;;7.87;3.30;;;;;;;;;;5018106;28;20522;-85
2022/06/23 07:00:59;;;;;;;8.93;3.60;;;;;;;;;;5016937;28;20399;-86
2022/06/23 07:03:26;;;;;;;8.90;4.60;;;;;;;;;;5015415;28;20418;-84
2022/06/23 07:05:55;;;;;;;6.43;3.00;;;;;;;;;;5016011;28;20482;-84
2022/06/23 07:08:25;;;;;;;13.83;3.20;;;;;;;;;;5016368;28;20461;-85
2022/06/23 07:10:53;;;;;;;11.80;3.43;;;;;;;;;;5016474;28;20446;-84
2022/06/23 07:13:28;;;;;;;8.70;3.30;;;;;;;;;;4998587;28;20954;-85
2022/06/23 07:15:57;;;;;;;7.30;3.33;;;;;;;;;;5016732;28;20474;-86
2022/06/23 07:18:23;;;;;;;9.00;3.20;;;;;;;;;;5017863;28;20451;-86
2022/06/23 07:20:49;;;;;;;7.80;3.13;;;;;;;;;;5018707;28;20466;-84
2022/06/23 07:23:19;;;;;;;11.37;4.40;;;;;;;;;;5011225;28;20411;-83
2022/06/23 07:25:50;;;;;;;17.50;5.77;;;;;;;;;;5033237;28;20426;-85
2022/06/23 07:28:42;;;;;;;10.73;3.57;;;;;;;;;;5033313;28;20415;-85
2022/06/23 07:31:12;;;;;;;8.23;3.37;;;;;;;;;;5025206;28;20495;-86
2022/06/23 07:33:42;;;;;;;14.67;3.90;;;;;;;;;;5023469;28;20442;-86
2022/06/23 07:36:14;;;;;;;6.00;2.77;;;;;;;;;;5004693;28;20776;-87
2022/06/23 07:38:43;;;;;;;8.20;3.60;;;;;;;;;;5021681;28;20474;-86
2022/06/23 07:41:09;;;;;;;7.33;3.13;;;;;;;;;;5020902;28;20415;-86
2022/06/23 07:43:40;;;;;;;9.37;3.00;;;;;;;;;;5021040;28;20419;-86
2022/06/23 07:46:06;;;;;;;6.60;2.83;;;;;;;;;;5020589;28;20860;-86
2022/06/23 07:48:33;;;;;;;11.37;3.43;;;;;;;;;;5021891;28;20403;-86
2022/06/23 07:51:01;;;;;;;7.87;3.70;;;;;;;;;;5020628;28;20490;-86
2022/06/23 07:53:29;;;;;;;6.80;2.80;;;;;;;;;;5002102;28;20435;-86
2022/06/23 07:55:55;;;;;;;10.67;2.97;;;;;;;;;;5020681;28;20779;-86
2022/06/23 07:58:23;;;;;;;6.67;2.17;;;;;;;;;;5020677;28;20447;-86
2022/06/23 08:00:50;;;;;;;8.90;2.40;;;;;;;;;;5022470;28;20770;-87
2022/06/23 08:03:30;;;;;;;5.10;2.40;;;;;;;;;;5021105;28;20399;-87
2022/06/23 08:06:00;;;;;;;5.20;3.27;;;;;;;;;;5020742;28;20447;-86
2022/06/23 08:08:27;;;;;;;7.03;2.57;;;;;;;;;;5020962;28;20410;-86
2022/06/23 08:13:45;;;;;;;6.47;2.70;;;;;;;;;;5020633;28;20465;-86
2022/06/23 08:19:17;;;;;;;6.33;3.00;;;;;;;;;;5021963;28;20441;-86
2022/06/23 08:21:52;;;;;;;11.67;3.03;;;;;;;;;;5023049;28;20781;-87
2022/06/23 08:24:23;;;;;;;7.53;2.40;;;;;;;;;;5001955;28;20586;-87
2022/06/23 08:26:59;;;;;;;9.70;3.30;;;;;;;;;;5019542;28;20441;-86
2022/06/23 08:29:28;;;;;;;7.17;2.97;;;;;;;;;;5019775;28;20872;-87
2022/06/23 08:31:54;;;;;;;6.17;2.57;;;;;;;;;;5019763;28;20476;-87
2022/06/23 08:34:22;;;;;;;8.43;3.47;;;;;;;;;;5019327;28;20431;-87
2022/06/23 08:36:49;;;;;;;6.50;2.33;;;;;;;;;;5001976;28;20416;-86
2022/06/23 08:39:39;;;;;;;7.30;2.77;;;;;;;;;;5019107;28;20495;-86
2022/06/23 08:42:24;;;;;;;6.73;2.50;;;;;;;;;;5009047;28;20426;-86
2022/06/23 08:44:50;;;;;;;8.47;2.70;;;;;;;;;;5019392;28;20431;-87
2022/06/23 08:47:31;;;;;;;8.43;3.43;;;;;;;;;;5019016;28;20400;-87
2022/06/23 08:50:07;;;;;;;9.33;2.80;;;;;;;;;;5019101;28;20399;-87
2022/06/23 08:52:43;;;;;;;7.80;2.77;;;;;;;;;;5019953;28;20399;-87
2022/06/23 08:55:14;;;;;;;6.50;2.93;;;;;;;;;;5020217;28;20434;-86
2022/06/23 08:57:45;;;;;;;11.20;3.00;;;;;;;;;;5019875;28;20834;-86
2022/06/23 09:00:15;;;;;;;14.97;3.60;;;;;;;;;;5002656;28;20407;-86
2022/06/23 09:02:47;;;;;;;8.10;2.67;;;;;;;;;;5019509;28;20914;-86
2022/06/23 09:05:20;;;;;;;7.20;3.40;;;;;;;;;;5031320;22;20498;-82
2022/06/23 09:07:45;;;;;;;9.43;3.80;;;;;;;;;;5009362;28;20415;-82
2022/06/23 09:10:11;;;;;;;9.00;3.47;;;;;;;;;;5017454;28;20403;-82
2022/06/23 09:12:42;;;;;;;10.70;3.20;;;;;;;;;;5018574;28;20765;-82
2022/06/23 09:15:08;;;;;;;13.00;4.60;;;;;;;;;;5019310;28;20432;-82
2022/06/23 09:17:40;;;;;;;8.53;3.03;;;;;;;;;;5022373;28;20461;-81
2022/06/23 09:20:12;;;;;;;10.17;3.30;;;;;;;;;;5019035;28;20461;-80
2022/06/23 09:22:44;;;;;;;7.20;3.20;;;;;;;;;;5015951;28;20479;-83
2022/06/23 09:25:23;;;;;;;7.50;3.70;;;;;;;;;;5016782;28;20434;-81
2022/06/23 09:28:15;;;;;;;7.50;3.13;;;;;;;;;;5015985;28;20402;-82
2022/06/23 09:31:00;;;;;;;11.03;3.00;;;;;;;;;;5012554;28;20448;-82
2022/06/23 09:33:32;;;;;;;8.83;3.50;;;;;;;;;;5015845;28;20396;-82
2022/06/23 09:36:31;;;;;;;7.20;2.63;;;;;;;;;;5015491;28;20474;-82
2022/06/23 09:39:11;;;;;;;7.30;2.70;;;;;;;;;;4973575;28;20516;-83
2022/06/23 09:41:51;;;;;;;9.83;3.33;;;;;;;;;;5017839;28;20487;-83
2022/06/23 09:44:17;;;;;;;8.93;2.60;;;;;;;;;;5018277;28;20427;-83
2022/06/23 09:47:01;;;;;;;7.77;2.40;;;;;;;;;;5017111;28;20775;-84
2022/06/23 09:49:46;;;;;;;6.80;2.60;;;;;;;;;;5019112;28;20767;-82
2022/06/23 09:52:30;;;;;;;6.43;2.63;;;;;;;;;;5000875;28;20395;-84
2022/06/23 09:55:15;;;;;;;9.37;2.57;;;;;;;;;;5019735;28;20423;-82
2022/06/23 09:57:50;;;;;;;13.40;4.03;;;;;;;;;;5019782;28;20490;-84
2022/06/23 10:00:21;;;;;;;8.33;2.70;;;;;;;;;;5020171;28;20907;-84
2022/06/23 10:02:51;;;;;;;8.17;2.77;;;;;;;;;;5020760;28;20407;-83
2022/06/23 10:05:23;;;;;;;6.80;2.50;;;;;;;;;;5020901;28;20485;-84
2022/06/23 10:08:08;;;;;;;8.93;2.40;;;;;;;;;;5001657;28;20507;-83
2022/06/23 10:10:46;;;;;;;6.30;3.23;;;;;;;;;;5020300;28;20418;-84
2022/06/23 10:13:39;;;;;;;6.50;2.70;;;;;;;;;;5021033;28;20413;-84
2022/06/23 10:16:14;;;;;;;4.93;2.73;;;;;;;;;;5016911;28;20403;-83
2022/06/23 10:18:59;;;;;;;10.30;2.90;;;;;;;;;;5020763;28;20537;-84
2022/06/23 10:21:40;;;;;;;7.57;2.63;;;;;;;;;;5003125;28;20454;-84
2022/06/23 10:24:19;;;;;;;8.63;2.90;;;;;;;;;;5021169;28;20785;-84
2022/06/23 10:26:45;;;;;;;7.27;2.90;;;;;;;;;;5021407;28;20486;-83
2022/06/23 10:29:23;;;;;;;7.90;2.60;;;;;;;;;;5020856;28;20923;-83
2022/06/23 10:31:49;;;;;;;9.63;2.37;;;;;;;;;;5021736;28;20422;-83
2022/06/23 10:34:21;;;;;;;9.60;2.30;;;;;;;;;;5020723;28;20419;-83
2022/06/23 10:36:53;;;;;;;6.63;2.90;;;;;;;;;;5020845;28;20466;-83
2022/06/23 10:39:28;;;;;;;6.60;2.00;;;;;;;;;;5020886;28;20520;-83
2022/06/23 10:42:08;;;;;;;8.60;2.40;;;;;;;;;;5020704;28;20403;-84
2022/06/23 10:44:37;;;;;;;4.50;1.80;;;;;;;;;;5021054;28;20427;-84
2022/06/23 10:47:09;;;;;;;12.30;2.77;;;;;;;;;;5003724;28;20790;-84
2022/06/23 10:49:54;;;;;;;9.80;4.63;;;;;;;;;;5020719;28;20504;-84
2022/06/23 10:52:40;;;;;;;5.83;2.77;;;;;;;;;;5021154;28;20414;-85
2022/06/23 10:55:19;;;;;;;6.53;2.23;;;;;;;;;;5020921;28;20984;-84
2022/06/23 10:57:45;;;;;;;11.30;2.40;;;;;;;;;;5020620;28;20466;-84
2022/06/23 11:00:19;;;;;;;7.70;2.27;;;;;;;;;;5006830;28;20415;-84
2022/06/23 11:02:51;;;;;;;7.37;3.20;;;;;;;;;;5026721;28;20406;-84
2022/06/23 11:05:24;;;;;;;10.80;3.50;;;;;;;;;;5027442;28;20529;-84
2022/06/23 11:08:10;;;;;;;10.20;2.80;;;;;;;;;;5009836;28;20415;-84
2022/06/23 11:10:55;;;;;;;12.57;3.23;;;;;;;;;;5026682;28;20407;-84
2022/06/23 11:13:21;;;;;;;6.60;2.57;;;;;;;;;;5028283;28;20414;-84
2022/06/23 11:15:58;;;;;;;7.17;3.10;;;;;;;;;;5025958;28;20477;-84
2022/06/23 11:18:43;;;;;;;11.07;4.93;;;;;;;;;;5025992;28;20966;-84
2022/06/23 11:21:27;;;;;;;9.67;2.80;;;;;;;;;;5025527;28;20426;-84
2022/06/23 11:24:05;;;;;;;8.13;2.93;;;;;;;;;;5024591;28;20437;-84
2022/06/23 11:26:44;;;;;;;5.87;3.13;;;;;;;;;;5027182;28;20431;-84
2022/06/23 11:29:09;;;;;;;7.13;2.67;;;;;;;;;;5025584;28;20414;-84
2022/06/23 11:31:58;;;;;;;5.63;2.47;;;;;;;;;;5025075;28;20915;-84
2022/06/23 11:34:24;;;;;;;6.87;3.13;;;;;;;;;;5025005;28;20952;-83
2022/06/23 11:37:08;;;;;;;6.53;2.60;;;;;;;;;;5024411;28;20493;-84
2022/06/23 11:39:46;;;;;;;5.87;2.70;;;;;;;;;;5024461;28;20470;-84
2022/06/23 11:42:12;;;;;;;9.50;2.90;;;;;;;;;;5024804;28;20422;-83
2022/06/23 11:44:47;;;;;;;7.50;3.07;;;;;;;;;;5024629;28;20428;-84
2022/06/23 11:47:32;;;;;;;13.20;2.70;;;;;;;;;;5024536;28;20426;-84
2022/06/23 11:50:13;;;;;;;11.53;4.00;;;;;;;;;;5025108;28;20434;-84
2022/06/23 11:52:45;;;;;;;6.13;2.80;;;;;;;;;;5024568;28;20392;-84
2022/06/23 11:55:24;;;;;;;8.53;2.80;;;;;;;;;;5023901;28;20423;-84
2022/06/23 11:58:13;;;;;;;5.50;2.87;;;;;;;;;;5025647;28;20447;-84
2022/06/23 12:00:45;;;;;;;7.57;2.50;;;;;;;;;;5025758;28;20506;-83
2022/06/23 12:03:14;;;;;;;7.13;2.50;;;;;;;;;;5026261;28;20438;-84
2022/06/23 12:05:40;;;;;;;6.23;2.27;;;;;;;;;;5026363;28;20986;-84
2022/06/23 12:08:35;;;;;;;7.30;2.30;;;;;;;;;;5025593;28;20412;-84
2022/06/23 12:11:01;;;;;;;11.47;3.10;;;;;;;;;;4991779;28;20483;-84
2022/06/23 12:13:28;;;;;;;9.00;2.40;;;;;;;;;;5025126;28;20407;-84
2022/06/23 12:15:55;;;;;;;12.47;4.33;;;;;;;;;;5007774;28;20411;-84
2022/06/23 12:18:24;;;;;;;7.27;2.40;;;;;;;;;;5025240;28;20447;-84
2022/06/23 12:20:50;;;;;;;7.30;2.47;;;;;;;;;;5026118;28;20416;-84
2022/06/23 12:23:20;;;;;;;5.57;2.90;;;;;;;;;;5025658;28;20403;-84
2022/06/23 12:26:02;;;;;;;10.30;2.77;;;;;;;;;;5025918;28;20446;-84
2022/06/23 12:28:28;;;;;;;8.13;2.97;;;;;;;;;;5026066;28;20487;-84
2022/06/23 12:31:06;;;;;;;5.93;2.33;;;;;;;;;;5024600;28;20411;-83
2022/06/23 12:33:38;;;;;;;7.07;2.80;;;;;;;;;;5023906;28;20411;-84
2022/06/23 12:36:09;;;;;;;5.43;2.83;;;;;;;;;;5023703;28;20399;-84
2022/06/23 12:38:35;;;;;;;8.47;2.03;;;;;;;;;;5023643;28;20423;-84
2022/06/23 12:41:07;;;;;;;7.10;2.63;;;;;;;;;;5023868;28;20402;-84
2022/06/23 12:43:35;;;;;;;5.17;2.63;;;;;;;;;;5022645;28;20792;-84
2022/06/23 12:46:16;;;;;;;5.50;2.30;;;;;;;;;;5023822;28;20399;-84
2022/06/23 12:48:45;;;;;;;8.00;3.37;;;;;;;;;;5023600;28;20758;-84
2022/06/23 12:51:30;;;;;;;10.60;2.47;;;;;;;;;;5013559;28;20390;-84
2022/06/23 12:54:11;;;;;;;8.80;3.10;;;;;;;;;;5032744;28;20477;-86
2022/06/23 12:56:48;;;;;;;14.07;3.20;;;;;;;;;;5028154;28;20399;-85
2022/06/23 12:59:20;;;;;;;14.43;2.40;;;;;;;;;;5025017;28;20435;-83
2022/06/23 13:01:58;;;;;;;9.37;3.43;;;;;;;;;;5026801;28;20399;-85
2022/06/23 13:04:32;;;;;;;8.87;2.73;;;;;;;;;;5024954;28;20443;-84
2022/06/23 13:07:07;;;;;;;5.63;2.27;;;;;;;;;;5016891;28;20391;-84
2022/06/23 13:09:52;;;;;;;7.63;2.00;;;;;;;;;;5015966;28;20502;-83
2022/06/23 13:12:26;;;;;;;7.17;2.70;;;;;;;;;;5015838;28;20799;-83
2022/06/23 13:14:58;;;;;;;9.63;2.83;;;;;;;;;;5016221;28;20795;-84
2022/06/23 13:17:32;;;;;;;10.30;3.30;;;;;;;;;;4999103;28;20415;-84
2022/06/23 13:20:16;;;;;;;9.57;3.10;;;;;;;;;;5016742;28;20422;-84
2022/06/23 13:22:43;;;;;;;12.67;3.90;;;;;;;;;;5017103;28;20383;-84
2022/06/23 13:25:13;;;;;;;8.10;3.77;;;;;;;;;;5017926;28;20427;-84
2022/06/23 13:27:45;;;;;;;7.30;4.10;;;;;;;;;;5019006;28;20396;-82
2022/06/23 13:30:15;;;;;;;9.90;3.07;;;;;;;;;;5021858;28;20384;-82
2022/06/23 13:33:00;;;;;;;10.33;3.17;;;;;;;;;;5021904;28;20402;-83
2022/06/23 13:35:35;;;;;;;10.73;3.43;;;;;;;;;;5021874;28;20838;-83
2022/06/23 13:38:15;;;;;;;5.43;2.97;;;;;;;;;;5021716;28;20443;-83
2022/06/23 13:40:49;;;;;;;9.77;3.50;;;;;;;;;;5023037;28;20762;-83
2022/06/23 13:43:32;;;;;;;9.20;3.27;;;;;;;;;;5022264;28;20512;-83
2022/06/23 13:46:17;;;;;;;6.67;3.20;;;;;;;;;;5021364;28;20474;-83
2022/06/23 13:48:43;;;;;;;7.37;3.00;;;;;;;;;;5022223;28;20399;-83
2022/06/23 13:51:16;;;;;;;9.97;2.83;;;;;;;;;;5023246;28;20458;-84
2022/06/23 13:53:44;;;;;;;7.33;2.83;;;;;;;;;;5023452;28;20422;-84
2022/06/23 13:56:23;;;;;;;5.93;2.73;;;;;;;;;;5023884;28;20411;-84
2022/06/23 13:58:49;;;;;;;14.63;3.70;;;;;;;;;;5006140;28;20531;-84
2022/06/23 14:01:24;;;;;;;11.20;3.10;;;;;;;;;;5023236;28;20408;-84
2022/06/23 14:03:50;;;;;;;10.07;3.03;;;;;;;;;;5023134;28;20469;-84
2022/06/23 14:06:20;;;;;;;7.10;3.07;;;;;;;;;;5023845;28;20418;-84
2022/06/23 14:09:01;;;;;;;8.87;3.10;;;;;;;;;;5024326;28;20418;-83
2022/06/23 14:11:39;;;;;;;7.50;3.37;;;;;;;;;;5023816;28;20398;-84
2022/06/23 14:14:14;;;;;;;9.80;2.80;;;;;;;;;;5023768;28;20438;-84
2022/06/23 14:16:51;;;;;;;11.60;3.90;;;;;;;;;;5033784;28;20407;-83
2022/06/23 14:19:26;;;;;;;10.70;3.80;;;;;;;;;;5033910;28;20439;-84
2022/06/23 14:21:59;;;;;;;6.20;2.57;;;;;;;;;;5034053;28;20403;-83
2022/06/23 14:24:31;;;;;;;11.73;4.00;;;;;;;;;;5033535;28;20786;-83
2022/06/23 14:27:09;;;;;;;8.10;3.70;;;;;;;;;;5016731;28;20431;-83
2022/06/23 14:29:35;;;;;;;10.53;3.83;;;;;;;;;;5034525;28;20410;-83
2022/06/23 14:32:13;;;;;;;9.47;3.60;;;;;;;;;;5034449;28;20418;-84
2022/06/23 14:34:42;;;;;;;7.40;3.20;;;;;;;;;;5037252;28;20542;-83
2022/06/23 14:37:15;;;;;;;17.13;3.90;;;;;;;;;;5039657;28;20435;-83
2022/06/23 14:39:50;;;;;;;7.60;2.80;;;;;;;;;;5039771;28;20952;-85
2022/06/23 14:42:34;;;;;;;10.03;3.00;;;;;;;;;;5031739;28;20437;-84
2022/06/23 14:45:26;;;;;;;9.27;3.43;;;;;;;;;;5028637;28;20478;-84
2022/06/23 14:48:27;;;;;;;11.60;3.00;;;;;;;;;;5019779;28;20411;-84
2022/06/23 14:51:12;;;;;;;13.73;3.43;;;;;;;;;;4948962;29;20519;-84
2022/06/23 14:53:48;;;;;;;11.13;2.93;;;;;;;;;;5021306;28;20426;-84
2022/06/23 14:56:49;;;;;;;8.90;3.37;;;;;;;;;;5027704;28;20406;-84
2022/06/23 14:59:15;;;;;;;10.53;3.17;;;;;;;;;;4947195;29;20541;-84
2022/06/23 15:01:59;;;;;;;7.43;3.17;;;;;;;;;;5009852;28;20442;-85
2022/06/23 15:04:31;;;;;;;7.00;3.53;;;;;;;;;;5023150;22;20465;-86
2022/06/23 15:07:05;;;;;;;7.53;2.70;;;;;;;;;;5019803;28;20438;-85
2022/06/23 15:09:31;;;;;;;9.83;2.70;;;;;;;;;;5005595;28;20962;-88
2022/06/23 15:12:01;;;;;;;8.43;3.20;;;;;;;;;;5022490;28;20403;-85
2022/06/23 15:14:38;;;;;;;9.23;2.90;;;;;;;;;;5022717;28;20753;-84
2022/06/23 15:17:06;;;;;;;13.20;4.53;;;;;;;;;;5022043;28;20461;-86
2022/06/23 15:19:36;;;;;;;10.37;3.00;;;;;;;;;;5022572;28;20494;-85
2022/06/23 15:25:05;;;;;;;8.80;2.90;;;;;;;;;;5021953;28;20413;-86
2022/06/23 15:27:41;;;;;;;5.87;2.53;;;;;;;;;;5022646;28;20380;-86
2022/06/23 15:30:21;;;;;;;8.57;3.30;;;;;;;;;;5022176;28;20384;-86
2022/06/23 15:32:56;;;;;;;11.13;3.30;;;;;;;;;;5021399;28;20395;-84
2022/06/23 15:35:41;;;;;;;7.43;3.37;;;;;;;;;;5020379;28;20439;-84
2022/06/23 15:38:07;;;;;;;10.10;3.50;;;;;;;;;;5018150;28;20423;-84
2022/06/23 15:40:36;;;;;;;8.40;2.93;;;;;;;;;;5019051;28;20414;-84